createdAt,value
2023-02-11T05:03:26.445Z,101250.41
2023-02-11T05:07:29.013Z,101237.19
2023-02-11T05:11:31.784Z,101229.06
2023-02-11T05:15:34.322Z,101223.22
2023-02-11T05:19:38.172Z,101231.09
2023-02-11T05:23:41.687Z,101230.59
2023-02-11T05:27:44.068Z,101219.31
2023-02-11T05:31:46.612Z,101218.34
2023-02-11T05:35:51.108Z,101222.25
2023-02-11T05:39:53.850Z,101212.28
2023-02-11T05:43:56.354Z,101223.13
2023-02-11T05:47:59.021Z,101219.34
2023-02-11T05:52:02.957Z,101215.09
2023-02-11T05:56:06.272Z,101221.50
2023-02-11T06:00:10.463Z,101236.44
2023-02-11T06:04:15.842Z,101242.66
2023-02-11T06:08:19.700Z,101251.50
2023-02-11T06:12:22.247Z,101247.63
2023-02-11T06:16:24.913Z,101231.97
2023-02-11T06:20:27.558Z,101230.16
2023-02-11T06:24:54.720Z,101223.34
2023-02-11T06:28:54.454Z,101233.56
2023-02-11T06:32:57.051Z,101234.66
2023-02-11T06:36:59.729Z,101230.75
2023-02-11T06:41:03.670Z,101231.22
2023-02-11T06:45:08.994Z,101224.66
2023-02-11T06:49:11.937Z,101235.34
2023-02-11T06:53:14.616Z,101228.78
2023-02-11T06:57:18.530Z,101230.50
2023-02-11T07:01:21.392Z,101230.50
2023-02-11T07:05:24.007Z,101237.41
2023-02-11T07:09:26.571Z,101248.22
2023-02-11T07:13:30.414Z,101237.38
2023-02-11T07:17:33.166Z,101237.97
2023-02-11T07:21:35.990Z,101234.97
2023-02-11T07:25:38.697Z,101240.72
2023-02-11T07:29:43.572Z,101240.34
2023-02-11T07:33:46.670Z,101253.09
2023-02-11T07:37:49.210Z,101255.72
2023-02-11T07:41:51.782Z,101265.19
2023-02-11T07:45:55.676Z,101263.28
2023-02-11T07:49:58.267Z,101252.13
2023-02-11T07:54:01.470Z,101255.03
2023-02-11T07:58:04.000Z,101256.97
2023-02-11T08:02:07.914Z,101273.97
2023-02-11T08:06:12.603Z,101271.31
2023-02-11T08:10:27.034Z,101265.25
2023-02-11T08:14:29.573Z,101262.53
2023-02-11T08:18:34.270Z,101267.25
2023-02-11T08:22:36.765Z,101262.78
2023-02-11T08:26:39.327Z,101273.72
2023-02-11T08:30:41.880Z,101267.06
2023-02-11T08:34:46.072Z,101265.53
2023-02-11T08:38:48.677Z,101265.78
2023-02-11T08:42:51.200Z,101269.63
2023-02-11T08:46:54.607Z,101269.84
2023-02-11T08:50:58.542Z,101272.28
2023-02-11T08:55:01.055Z,101285.16
2023-02-11T08:59:03.675Z,101281.94
2023-02-11T09:03:06.192Z,101291.91
2023-02-11T09:07:10.096Z,101296.06
2023-02-11T09:11:13.324Z,101296.00
2023-02-11T09:15:15.822Z,101296.66
2023-02-11T09:19:19.154Z,101297.72
2023-02-11T09:23:23.017Z,101302.47
2023-02-11T09:27:25.557Z,101305.03
2023-02-11T09:31:30.450Z,101294.13
2023-02-11T09:35:34.164Z,101296.31
2023-02-11T09:39:38.027Z,101296.66
2023-02-11T09:43:47.050Z,101309.25
2023-02-11T09:47:54.044Z,101314.22
2023-02-11T09:52:02.493Z,101327.31
2023-02-11T09:56:13.522Z,101343.09
2023-02-11T10:00:22.676Z,101345.44
2023-02-11T10:04:45.531Z,101331.16
2023-02-11T10:08:58.855Z,101333.25
2023-02-11T10:13:20.310Z,101338.47
2023-02-11T10:17:31.666Z,101343.88
2023-02-11T10:21:46.693Z,101342.41
2023-02-11T10:25:54.411Z,101346.47
2023-02-11T10:30:03.663Z,101353.88
2023-02-11T10:34:08.793Z,101352.56
2023-02-11T10:38:12.192Z,101340.03
2023-02-11T10:42:15.532Z,101331.19
2023-02-11T10:46:23.619Z,101337.81
2023-02-11T10:50:28.197Z,101344.03
2023-02-11T10:54:30.704Z,101335.38
2023-02-11T10:58:37.973Z,101336.38
2023-02-11T11:02:44.085Z,101346.50
2023-02-11T11:06:46.738Z,101338.66
2023-02-11T11:11:03.715Z,101328.28
2023-02-11T11:15:22.530Z,101338.72
2023-02-11T11:19:26.871Z,101338.16
2023-02-11T11:23:30.819Z,101337.22
2023-02-11T11:27:33.887Z,101337.69
2023-02-11T11:31:46.114Z,101339.09
2023-02-11T11:36:01.191Z,101339.22
2023-02-11T11:40:09.578Z,101336.53
2023-02-11T11:44:25.225Z,101334.91
2023-02-11T11:48:32.313Z,101335.75
2023-02-11T11:52:42.661Z,101324.19
2023-02-11T11:56:51.999Z,101338.34
2023-02-11T12:01:02.852Z,101326.06
2023-02-11T12:05:12.658Z,101326.38
2023-02-11T12:09:26.729Z,101324.78
2023-02-11T12:13:41.710Z,101330.03
2023-02-11T12:17:56.669Z,101321.41
2023-02-11T12:22:10.446Z,101318.41
2023-02-11T12:26:18.844Z,101328.16
2023-02-11T12:30:42.735Z,101324.81
2023-02-11T12:34:53.860Z,101321.53
2023-02-11T12:39:11.564Z,101325.94
2023-02-11T12:43:24.297Z,101321.56
2023-02-11T12:47:38.816Z,101312.34
2023-02-11T12:51:56.536Z,101311.34
2023-02-11T12:56:05.675Z,101312.88
2023-02-11T13:00:18.354Z,101323.78
2023-02-11T13:04:26.554Z,101329.41
2023-02-11T13:08:32.905Z,101320.94
2023-02-11T13:12:55.927Z,101327.75
2023-02-11T13:17:05.263Z,101314.59
2023-02-11T13:21:26.816Z,101303.72
2023-02-11T13:25:37.153Z,101312.28
2023-02-11T13:30:04.480Z,101304.94
2023-02-11T13:34:28.302Z,101315.56
2023-02-11T13:38:32.608Z,101313.81
2023-02-11T13:42:50.640Z,101309.78
2023-02-11T13:47:02.237Z,101318.66
2023-02-11T13:51:08.906Z,101320.91
2023-02-11T13:55:22.652Z,101322.81
2023-02-11T13:59:43.681Z,101327.94
2023-02-11T14:04:25.374Z,101332.75
2023-02-11T14:08:47.046Z,101330.75
2023-02-11T14:13:18.611Z,101322.16
2023-02-11T14:17:31.441Z,101327.41
2023-02-11T14:21:37.740Z,101331.84
2023-02-11T14:25:44.265Z,101326.63
2023-02-11T14:30:14.948Z,101336.16
2023-02-11T14:34:45.332Z,101343.94
2023-02-11T14:38:59.676Z,101339.56
2023-02-11T14:43:13.120Z,101348.47
2023-02-11T14:47:18.737Z,101350.44
2023-02-11T14:51:24.195Z,101346.22
2023-02-11T14:55:32.982Z,101354.44
2023-02-11T14:59:37.037Z,101355.88
2023-02-11T15:03:41.778Z,101356.47
2023-02-11T15:07:46.327Z,101362.69
2023-02-11T15:11:50.381Z,101360.97
2023-02-11T15:15:56.711Z,101363.22
2023-02-11T15:20:02.752Z,101362.78
2023-02-11T15:24:21.499Z,101369.53
2023-02-11T15:28:27.065Z,101377.94
2023-02-11T15:32:31.011Z,101380.78
2023-02-11T15:36:36.285Z,101376.38
2023-02-11T15:40:39.057Z,101384.84
2023-02-11T15:44:41.568Z,101383.28
2023-02-11T15:48:48.988Z,101375.22
2023-02-11T15:52:52.854Z,101374.19
2023-02-11T15:57:00.666Z,101369.53
2023-02-11T16:01:03.325Z,101379.00
2023-02-11T16:05:10.296Z,101382.53
2023-02-11T16:09:26.089Z,101385.53
2023-02-11T16:13:30.575Z,101389.22
2023-02-11T16:17:33.191Z,101394.47
2023-02-11T16:21:45.286Z,101395.56
2023-02-11T16:25:47.820Z,101391.09
2023-02-11T16:29:51.698Z,101395.19
2023-02-11T16:33:54.205Z,101393.50
2023-02-11T16:37:58.344Z,101391.22
2023-02-11T16:42:02.025Z,101399.72
2023-02-11T16:46:05.821Z,101408.66
2023-02-11T16:50:10.129Z,101397.91
2023-02-11T16:54:16.607Z,101404.50
2023-02-11T16:58:19.644Z,101412.47
2023-02-11T17:02:25.961Z,101424.22
2023-02-11T17:06:28.841Z,101417.28
2023-02-11T17:10:32.824Z,101424.63
2023-02-11T17:14:35.332Z,101422.50
2023-02-11T17:18:39.262Z,101416.41
2023-02-11T17:22:42.237Z,101434.41
2023-02-11T17:26:47.442Z,101435.53
2023-02-11T17:30:50.039Z,101437.19
2023-02-11T17:34:53.739Z,101452.34
2023-02-11T17:38:56.423Z,101451.22
2023-02-11T17:43:02.210Z,101449.97
2023-02-11T17:47:04.931Z,101453.47
2023-02-11T17:51:22.617Z,101457.16
2023-02-11T17:55:25.300Z,101463.53
2023-02-11T17:59:35.334Z,101474.28
2023-02-11T18:03:38.026Z,101473.56
2023-02-11T18:07:40.534Z,101477.09
2023-02-11T18:11:43.111Z,101474.97
2023-02-11T18:15:47.057Z,101481.06
2023-02-11T18:19:50.362Z,101470.47
2023-02-11T18:23:53.012Z,101478.81
2023-02-11T18:27:55.548Z,101475.41
2023-02-11T18:31:59.434Z,101474.41
2023-02-11T18:36:06.215Z,101485.72
2023-02-11T18:40:11.430Z,101490.69
2023-02-11T18:44:14.412Z,101491.53
2023-02-11T18:48:19.278Z,101497.47
2023-02-11T18:52:21.795Z,101491.13
2023-02-11T18:56:27.661Z,101500.31
2023-02-11T19:00:31.103Z,101500.72
2023-02-11T19:04:37.131Z,101513.34
2023-02-11T19:08:39.684Z,101500.16
2023-02-11T19:12:42.182Z,101508.22
2023-02-11T19:16:46.124Z,101508.38
2023-02-11T19:20:50.101Z,101507.66
2023-02-11T19:24:52.655Z,101503.56
2023-02-11T19:28:55.286Z,101505.28
2023-02-11T19:33:00.220Z,101512.47
2023-02-11T19:37:04.068Z,101506.97
2023-02-11T19:41:06.587Z,101525.22
2023-02-11T19:45:09.769Z,101539.81
2023-02-11T19:49:15.986Z,101531.03
2023-02-11T19:53:20.031Z,101551.69
2023-02-11T19:57:22.599Z,101545.03
2023-02-11T20:01:26.607Z,101539.25
2023-02-11T20:05:31.338Z,101537.84
2023-02-11T20:09:35.194Z,101539.66
2023-02-11T20:13:37.839Z,101535.84
2023-02-11T20:17:40.328Z,101532.44
2023-02-11T20:21:44.991Z,101536.53
2023-02-11T20:25:50.757Z,101535.97
2023-02-11T20:29:53.681Z,101531.16
2023-02-11T20:33:57.393Z,101545.84
2023-02-11T20:38:00.463Z,101542.19
2023-02-11T20:42:04.685Z,101550.25
2023-02-11T20:46:08.327Z,101562.66
2023-02-11T20:50:11.845Z,101564.00
2023-02-11T20:54:14.840Z,101558.16
2023-02-11T20:58:18.690Z,101561.97
2023-02-11T21:02:23.597Z,101578.09
2023-02-11T21:06:32.575Z,101575.44
2023-02-11T21:10:35.076Z,101574.03
2023-02-11T21:14:38.938Z,101580.94
2023-02-11T21:18:41.527Z,101586.47
2023-02-11T21:22:44.009Z,101601.63
2023-02-11T21:26:46.537Z,101593.56
2023-02-11T21:30:51.445Z,101597.66
2023-02-11T21:34:54.918Z,101596.44
2023-02-11T21:38:57.820Z,101606.16
2023-02-11T21:43:00.355Z,101610.97
2023-02-11T21:47:04.343Z,101604.94
2023-02-11T21:51:08.747Z,101620.19
2023-02-11T21:55:11.370Z,101628.97
2023-02-11T21:59:14.721Z,101624.31
